Geneva, Switzerland
Current Conditions -  °F | °C
As of 7:50 AM on Thursday 27 Nov 2014 (Local Time) from LSGG Reporting Station
Haze Haze  
Wind Chill: 48°   Ceiling: 500
Heat Index: 48°   Visibility: 2.8mi
Dew Point: 48°   Wind: 2mph
Humidity: 100%   Direction: NA
Pressure: 29.77"   Gusts: NA
Location:  46.21°N, 6.14°E
Report Text: LSGG 270650Z VRB02KT 4500 BR FEW003 BKN005 09/09 Q1008 NOSIG
Loading
Personal Weather Stations






























Interactive Weather Map New forecast layout! Learn more

10-Day Weather Forecast

Advertisements
Track Severe Weather on mobile